sensor_id;sensor_type;location;lat;lon;timestamp;pressure;altitude;pressure_sealevel;temperature;humidity
34482;BME280;20720;48.886;9.388;2023-07-02T00:00:17;97715.69;;;20.74;100.00
34482;BME280;20720;48.886;9.388;2023-07-02T00:02:42;97726.06;;;21.14;100.00
34482;BME280;20720;48.886;9.388;2023-07-02T00:05:08;97728.78;;;20.71;100.00
34482;BME280;20720;48.886;9.388;2023-07-02T00:07:34;97729.88;;;20.70;100.00
34482;BME280;20720;48.886;9.388;2023-07-02T00:10:01;97723.47;;;20.99;100.00
34482;BME280;20720;48.886;9.388;2023-07-02T00:12:26;97726.75;;;20.57;100.00
34482;BME280;20720;48.886;9.388;2023-07-02T00:14:51;97734.19;;;21.04;100.00
34482;BME280;20720;48.886;9.388;2023-07-02T00:17:18;97728.94;;;20.89;100.00
34482;BME280;20720;48.886;9.388;2023-07-02T00:19:43;97725.97;;;20.91;100.00
34482;BME280;20720;48.886;9.388;2023-07-02T00:22:11;97726.16;;;21.04;100.00
34482;BME280;20720;48.886;9.388;2023-07-02T00:24:37;97723.44;;;20.32;100.00
34482;BME280;20720;48.886;9.388;2023-07-02T00:27:02;97727.56;;;20.58;100.00
34482;BME280;20720;48.886;9.388;2023-07-02T00:29:28;97738.19;;;20.63;100.00
34482;BME280;20720;48.886;9.388;2023-07-02T00:31:53;97731.31;;;20.52;100.00
34482;BME280;20720;48.886;9.388;2023-07-02T00:34:18;97727.69;;;20.38;100.00
34482;BME280;20720;48.886;9.388;2023-07-02T00:36:44;97734.66;;;20.29;100.00
34482;BME280;20720;48.886;9.388;2023-07-02T00:39:10;97718.53;;;19.95;100.00
34482;BME280;20720;48.886;9.388;2023-07-02T00:41:37;97723.97;;;20.29;100.00
34482;BME280;20720;48.886;9.388;2023-07-02T00:44:02;97717.69;;;20.05;100.00
34482;BME280;20720;48.886;9.388;2023-07-02T00:46:27;97734.25;;;20.02;100.00
34482;BME280;20720;48.886;9.388;2023-07-02T00:48:54;97736.09;;;20.60;100.00
34482;BME280;20720;48.886;9.388;2023-07-02T00:51:27;97740.94;;;20.53;100.00
34482;BME280;20720;48.886;9.388;2023-07-02T00:53:54;97737.13;;;20.64;100.00
34482;BME280;20720;48.886;9.388;2023-07-02T00:56:23;97747.09;;;20.87;100.00
34482;BME280;20720;48.886;9.388;2023-07-02T00:58:50;97743.91;;;20.46;100.00
34482;BME280;20720;48.886;9.388;2023-07-02T01:01:21;97744.84;;;20.99;100.00
34482;BME280;20720;48.886;9.388;2023-07-02T01:03:51;97745.94;;;21.03;100.00
34482;BME280;20720;48.886;9.388;2023-07-02T01:06:19;97748.69;;;20.88;100.00
34482;BME280;20720;48.886;9.388;2023-07-02T01:08:50;97739.25;;;21.01;100.00
34482;BME280;20720;48.886;9.388;2023-07-02T01:11:15;97746.59;;;20.80;100.00
34482;BME280;20720;48.886;9.388;2023-07-02T01:13:40;97736.09;;;20.60;100.00
34482;BME280;20720;48.886;9.388;2023-07-02T01:16:06;97730.91;;;20.74;100.00
34482;BME280;20720;48.886;9.388;2023-07-02T01:18:31;97734.16;;;20.66;100.00
34482;BME280;20720;48.886;9.388;2023-07-02T01:20:57;97735.38;;;20.49;100.00
34482;BME280;20720;48.886;9.388;2023-07-02T01:23:23;97730.63;;;20.36;100.00
34482;BME280;20720;48.886;9.388;2023-07-02T01:25:51;97724.59;;;20.21;100.00
34482;BME280;20720;48.886;9.388;2023-07-02T01:28:16;97730.56;;;19.93;100.00
34482;BME280;20720;48.886;9.388;2023-07-02T01:30:41;97730.59;;;20.80;100.00
34482;BME280;20720;48.886;9.388;2023-07-02T01:33:07;97734.19;;;20.22;100.00
34482;BME280;20720;48.886;9.388;2023-07-02T01:35:32;97732.59;;;20.21;100.00
34482;BME280;20720;48.886;9.388;2023-07-02T01:37:57;97719.88;;;19.98;100.00
34482;BME280;20720;48.886;9.388;2023-07-02T01:40:22;97732.47;;;20.41;100.00
34482;BME280;20720;48.886;9.388;2023-07-02T01:42:48;97735.19;;;20.36;100.00
34482;BME280;20720;48.886;9.388;2023-07-02T01:45:13;97736.22;;;20.40;100.00
34482;BME280;20720;48.886;9.388;2023-07-02T01:47:38;97723.47;;;19.68;100.00
34482;BME280;20720;48.886;9.388;2023-07-02T01:50:05;97741.78;;;19.80;100.00
34482;BME280;20720;48.886;9.388;2023-07-02T01:52:30;97735.06;;;20.02;100.00
34482;BME280;20720;48.886;9.388;2023-07-02T01:54:58;97739.84;;;20.05;100.00
34482;BME280;20720;48.886;9.388;2023-07-02T01:57:23;97740.41;;;19.97;100.00
34482;BME280;20720;48.886;9.388;2023-07-02T01:59:48;97742.78;;;20.04;100.00
34482;BME280;20720;48.886;9.388;2023-07-02T02:02:14;97732.00;;;20.29;100.00
34482;BME280;20720;48.886;9.388;2023-07-02T02:04:39;97731.69;;;19.77;100.00
34482;BME280;20720;48.886;9.388;2023-07-02T02:07:04;97738.22;;;20.09;100.00
34482;BME280;20720;48.886;9.388;2023-07-02T02:09:29;97731.06;;;20.00;100.00
34482;BME280;20720;48.886;9.388;2023-07-02T02:11:57;97725.13;;;20.23;100.00
34482;BME280;20720;48.886;9.388;2023-07-02T02:14:22;97731.50;;;20.22;100.00
34482;BME280;20720;48.886;9.388;2023-07-02T02:16:47;97739.41;;;20.42;100.00
34482;BME280;20720;48.886;9.388;2023-07-02T02:19:13;97744.38;;;20.05;100.00
34482;BME280;20720;48.886;9.388;2023-07-02T02:21:41;97748.59;;;20.21;100.00
34482;BME280;20720;48.886;9.388;2023-07-02T02:24:06;97752.97;;;19.82;100.00
34482;BME280;20720;48.886;9.388;2023-07-02T02:26:35;97751.63;;;19.89;100.00
34482;BME280;20720;48.886;9.388;2023-07-02T02:29:00;97746.13;;;19.65;100.00
34482;BME280;20720;48.886;9.388;2023-07-02T02:31:26;97744.81;;;19.48;100.00
34482;BME280;20720;48.886;9.388;2023-07-02T02:33:51;97758.78;;;20.04;100.00
34482;BME280;20720;48.886;9.388;2023-07-02T02:36:16;97758.53;;;19.95;100.00
34482;BME280;20720;48.886;9.388;2023-07-02T02:38:42;97754.56;;;19.93;100.00
34482;BME280;20720;48.886;9.388;2023-07-02T02:41:07;97752.84;;;20.22;100.00
34482;BME280;20720;48.886;9.388;2023-07-02T02:43:33;97758.31;;;19.87;100.00
34482;BME280;20720;48.886;9.388;2023-07-02T02:45:59;97747.28;;;20.13;100.00
34482;BME280;20720;48.886;9.388;2023-07-02T02:48:24;97746.03;;;19.86;100.00
34482;BME280;20720;48.886;9.388;2023-07-02T02:50:49;97748.13;;;20.04;100.00
34482;BME280;20720;48.886;9.388;2023-07-02T02:53:14;97741.78;;;19.85;100.00
34482;BME280;20720;48.886;9.388;2023-07-02T02:55:40;97742.56;;;19.90;100.00
34482;BME280;20720;48.886;9.388;2023-07-02T02:58:05;97749.78;;;19.85;100.00
34482;BME280;20720;48.886;9.388;2023-07-02T03:00:30;97752.22;;;19.71;100.00
34482;BME280;20720;48.886;9.388;2023-07-02T03:02:56;97754.03;;;19.91;100.00
34482;BME280;20720;48.886;9.388;2023-07-02T03:05:22;97752.66;;;20.03;100.00
34482;BME280;20720;48.886;9.388;2023-07-02T03:07:47;97760.00;;;20.75;100.00
34482;BME280;20720;48.886;9.388;2023-07-02T03:10:13;97769.06;;;20.79;100.00
34482;BME280;20720;48.886;9.388;2023-07-02T03:12:38;97774.28;;;20.94;100.00
34482;BME280;20720;48.886;9.388;2023-07-02T03:15:03;97774.41;;;20.79;100.00
34482;BME280;20720;48.886;9.388;2023-07-02T03:17:29;97768.94;;;20.94;100.00
34482;BME280;20720;48.886;9.388;2023-07-02T03:19:54;97772.94;;;21.30;100.00
34482;BME280;20720;48.886;9.388;2023-07-02T03:22:19;97782.91;;;21.20;100.00
34482;BME280;20720;48.886;9.388;2023-07-02T03:24:44;97790.19;;;21.14;100.00
34482;BME280;20720;48.886;9.388;2023-07-02T03:27:10;97786.81;;;20.60;100.00
34482;BME280;20720;48.886;9.388;2023-07-02T03:29:35;97776.47;;;19.75;100.00
34482;BME280;20720;48.886;9.388;2023-07-02T03:32:01;97764.72;;;19.86;100.00
34482;BME280;20720;48.886;9.388;2023-07-02T03:34:26;97781.28;;;19.78;100.00
34482;BME280;20720;48.886;9.388;2023-07-02T03:36:52;97798.22;;;20.17;100.00
34482;BME280;20720;48.886;9.388;2023-07-02T03:39:17;97809.06;;;19.41;100.00
34482;BME280;20720;48.886;9.388;2023-07-02T03:41:43;97799.94;;;19.78;100.00
34482;BME280;20720;48.886;9.388;2023-07-02T03:44:08;97797.75;;;20.00;100.00
34482;BME280;20720;48.886;9.388;2023-07-02T03:46:34;97811.03;;;20.15;100.00
34482;BME280;20720;48.886;9.388;2023-07-02T03:48:59;97808.19;;;19.81;100.00
34482;BME280;20720;48.886;9.388;2023-07-02T03:51:25;97809.06;;;19.46;100.00
34482;BME280;20720;48.886;9.388;2023-07-02T03:53:50;97821.25;;;19.93;100.00
34482;BME280;20720;48.886;9.388;2023-07-02T03:56:15;97811.13;;;18.89;100.00
34482;BME280;20720;48.886;9.388;2023-07-02T03:58:40;97825.03;;;19.61;100.00
34482;BME280;20720;48.886;9.388;2023-07-02T04:01:06;97826.63;;;19.12;100.00
34482;BME280;20720;48.886;9.388;2023-07-02T04:03:31;97826.59;;;18.97;100.00
34482;BME280;20720;48.886;9.388;2023-07-02T04:05:56;97843.66;;;19.06;100.00
34482;BME280;20720;48.886;9.388;2023-07-02T04:08:22;97851.66;;;19.16;100.00
34482;BME280;20720;48.886;9.388;2023-07-02T04:10:47;97855.94;;;19.47;100.00
34482;BME280;20720;48.886;9.388;2023-07-02T04:13:13;97862.59;;;19.30;100.00
34482;BME280;20720;48.886;9.388;2023-07-02T04:15:38;97875.94;;;19.70;100.00
34482;BME280;20720;48.886;9.388;2023-07-02T04:18:03;97872.97;;;19.31;100.00
34482;BME280;20720;48.886;9.388;2023-07-02T04:20:28;97869.81;;;19.39;100.00
34482;BME280;20720;48.886;9.388;2023-07-02T04:22:54;97881.28;;;19.70;100.00
34482;BME280;20720;48.886;9.388;2023-07-02T04:25:20;97874.84;;;19.81;100.00
34482;BME280;20720;48.886;9.388;2023-07-02T04:27:45;97870.88;;;19.33;100.00
34482;BME280;20720;48.886;9.388;2023-07-02T04:30:11;97871.31;;;18.95;100.00
34482;BME280;20720;48.886;9.388;2023-07-02T04:32:38;97869.16;;;18.87;100.00
34482;BME280;20720;48.886;9.388;2023-07-02T04:35:07;97862.78;;;18.78;100.00
34482;BME280;20720;48.886;9.388;2023-07-02T04:37:33;97870.09;;;19.43;100.00
34482;BME280;20720;48.886;9.388;2023-07-02T04:39:58;97875.06;;;18.94;100.00
34482;BME280;20720;48.886;9.388;2023-07-02T04:42:23;97877.28;;;19.42;100.00
34482;BME280;20720;48.886;9.388;2023-07-02T04:44:57;97878.53;;;19.10;100.00
34482;BME280;20720;48.886;9.388;2023-07-02T04:47:27;97883.09;;;19.09;100.00
34482;BME280;20720;48.886;9.388;2023-07-02T04:49:53;97878.06;;;19.68;100.00
34482;BME280;20720;48.886;9.388;2023-07-02T04:52:18;97880.44;;;19.85;100.00
34482;BME280;20720;48.886;9.388;2023-07-02T04:54:43;97882.28;;;19.99;100.00
34482;BME280;20720;48.886;9.388;2023-07-02T04:57:08;97895.91;;;19.88;100.00
34482;BME280;20720;48.886;9.388;2023-07-02T04:59:33;97899.72;;;20.66;100.00
34482;BME280;20720;48.886;9.388;2023-07-02T05:01:59;97909.75;;;20.89;100.00
34482;BME280;20720;48.886;9.388;2023-07-02T05:04:24;97911.38;;;19.96;100.00
34482;BME280;20720;48.886;9.388;2023-07-02T05:06:49;97909.78;;;19.75;100.00
34482;BME280;20720;48.886;9.388;2023-07-02T05:09:14;97913.44;;;20.34;100.00
34482;BME280;20720;48.886;9.388;2023-07-02T05:11:40;97916.16;;;19.53;100.00
34482;BME280;20720;48.886;9.388;2023-07-02T05:14:05;97915.50;;;20.52;100.00
34482;BME280;20720;48.886;9.388;2023-07-02T05:16:30;97919.72;;;21.22;100.00
34482;BME280;20720;48.886;9.388;2023-07-02T05:18:55;97925.44;;;22.64;100.00
34482;BME280;20720;48.886;9.388;2023-07-02T05:21:22;97934.38;;;21.68;100.00
34482;BME280;20720;48.886;9.388;2023-07-02T05:23:47;97929.25;;;20.89;100.00
34482;BME280;20720;48.886;9.388;2023-07-02T05:26:13;97931.41;;;21.36;100.00
34482;BME280;20720;48.886;9.388;2023-07-02T05:28:38;97942.91;;;22.61;100.00
34482;BME280;20720;48.886;9.388;2023-07-02T05:31:04;97947.66;;;21.44;100.00
34482;BME280;20720;48.886;9.388;2023-07-02T05:33:29;97953.59;;;21.36;100.00
34482;BME280;20720;48.886;9.388;2023-07-02T05:35:56;97952.84;;;20.67;100.00
34482;BME280;20720;48.886;9.388;2023-07-02T05:38:21;97947.84;;;20.40;100.00
34482;BME280;20720;48.886;9.388;2023-07-02T05:40:46;97950.38;;;20.81;100.00
34482;BME280;20720;48.886;9.388;2023-07-02T05:43:12;97946.72;;;20.61;100.00
34482;BME280;20720;48.886;9.388;2023-07-02T05:45:37;97947.88;;;21.09;100.00
34482;BME280;20720;48.886;9.388;2023-07-02T05:48:02;97955.59;;;20.37;100.00
34482;BME280;20720;48.886;9.388;2023-07-02T05:50:28;97969.66;;;21.31;100.00
34482;BME280;20720;48.886;9.388;2023-07-02T05:52:53;97973.47;;;22.03;100.00
34482;BME280;20720;48.886;9.388;2023-07-02T05:55:18;97975.19;;;22.46;100.00
34482;BME280;20720;48.886;9.388;2023-07-02T05:57:43;97971.38;;;22.76;100.00
34482;BME280;20720;48.886;9.388;2023-07-02T06:00:10;97977.88;;;22.70;100.00
34482;BME280;20720;48.886;9.388;2023-07-02T06:02:36;97982.50;;;22.64;100.00
34482;BME280;20720;48.886;9.388;2023-07-02T06:05:01;97974.59;;;23.20;100.00
34482;BME280;20720;48.886;9.388;2023-07-02T06:07:27;97985.59;;;22.76;100.00
34482;BME280;20720;48.886;9.388;2023-07-02T06:09:52;97990.34;;;22.56;100.00
34482;BME280;20720;48.886;9.388;2023-07-02T06:12:17;97993.34;;;22.78;100.00
34482;BME280;20720;48.886;9.388;2023-07-02T06:14:43;97998.50;;;22.69;100.00
34482;BME280;20720;48.886;9.388;2023-07-02T06:17:08;97996.97;;;23.10;100.00
34482;BME280;20720;48.886;9.388;2023-07-02T06:19:35;97999.44;;;22.83;99.90
34482;BME280;20720;48.886;9.388;2023-07-02T06:22:00;98005.16;;;22.48;100.00
34482;BME280;20720;48.886;9.388;2023-07-02T06:24:25;98004.81;;;21.53;100.00
34482;BME280;20720;48.886;9.388;2023-07-02T06:26:51;98005.22;;;22.90;100.00
34482;BME280;20720;48.886;9.388;2023-07-02T06:29:16;98004.34;;;22.19;100.00
34482;BME280;20720;48.886;9.388;2023-07-02T06:31:42;98002.91;;;21.10;100.00
34482;BME280;20720;48.886;9.388;2023-07-02T06:34:07;98012.31;;;23.66;96.71
34482;BME280;20720;48.886;9.388;2023-07-02T06:36:33;98013.97;;;24.31;91.48
34482;BME280;20720;48.886;9.388;2023-07-02T06:38:59;98011.38;;;23.57;97.56
34482;BME280;20720;48.886;9.388;2023-07-02T06:41:24;98014.78;;;23.81;92.96
34482;BME280;20720;48.886;9.388;2023-07-02T06:43:49;98016.16;;;23.78;94.67
34482;BME280;20720;48.886;9.388;2023-07-02T06:46:14;98009.78;;;23.13;96.09
34482;BME280;20720;48.886;9.388;2023-07-02T06:48:40;98015.19;;;23.51;95.13
34482;BME280;20720;48.886;9.388;2023-07-02T06:51:05;98010.81;;;23.60;91.37
34482;BME280;20720;48.886;9.388;2023-07-02T06:53:32;98014.91;;;22.86;92.45
34482;BME280;20720;48.886;9.388;2023-07-02T06:55:57;98024.47;;;24.14;88.42
34482;BME280;20720;48.886;9.388;2023-07-02T06:58:22;98025.78;;;23.18;89.84
34482;BME280;20720;48.886;9.388;2023-07-02T07:00:47;98029.34;;;23.14;86.75
34482;BME280;20720;48.886;9.388;2023-07-02T07:03:13;98027.53;;;23.89;87.82
34482;BME280;20720;48.886;9.388;2023-07-02T07:05:38;98033.97;;;23.08;88.19
34482;BME280;20720;48.886;9.388;2023-07-02T07:08:04;98027.28;;;24.22;83.59
34482;BME280;20720;48.886;9.388;2023-07-02T07:10:29;98030.88;;;23.44;88.76
34482;BME280;20720;48.886;9.388;2023-07-02T07:12:59;98027.94;;;22.45;95.43
34482;BME280;20720;48.886;9.388;2023-07-02T07:15:24;98024.19;;;24.61;82.43
34482;BME280;20720;48.886;9.388;2023-07-02T07:17:49;98024.06;;;23.51;85.05
34482;BME280;20720;48.886;9.388;2023-07-02T07:20:15;98035.25;;;23.77;83.08
34482;BME280;20720;48.886;9.388;2023-07-02T07:22:40;98031.41;;;24.93;76.99
34482;BME280;20720;48.886;9.388;2023-07-02T07:25:05;98036.53;;;23.61;82.88
34482;BME280;20720;48.886;9.388;2023-07-02T07:27:31;98031.06;;;24.67;77.94
34482;BME280;20720;48.886;9.388;2023-07-02T07:29:56;98037.63;;;23.17;84.17
34482;BME280;20720;48.886;9.388;2023-07-02T07:32:21;98036.69;;;24.06;81.89
34482;BME280;20720;48.886;9.388;2023-07-02T07:34:46;98031.69;;;24.32;79.23
34482;BME280;20720;48.886;9.388;2023-07-02T07:37:12;98042.03;;;23.88;79.29
34482;BME280;20720;48.886;9.388;2023-07-02T07:39:37;98041.09;;;23.42;78.20
34482;BME280;20720;48.886;9.388;2023-07-02T07:42:02;98044.69;;;24.57;75.85
34482;BME280;20720;48.886;9.388;2023-07-02T07:44:28;98045.44;;;24.44;78.22
34482;BME280;20720;48.886;9.388;2023-07-02T07:46:55;98049.50;;;24.42;77.81
34482;BME280;20720;48.886;9.388;2023-07-02T07:49:21;98050.75;;;23.80;80.03
34482;BME280;20720;48.886;9.388;2023-07-02T07:51:46;98051.16;;;23.87;79.82
34482;BME280;20720;48.886;9.388;2023-07-02T07:54:11;98047.03;;;24.91;73.85
34482;BME280;20720;48.886;9.388;2023-07-02T07:56:36;98043.69;;;26.11;70.64
34482;BME280;20720;48.886;9.388;2023-07-02T07:59:02;98043.50;;;25.72;71.24
34482;BME280;20720;48.886;9.388;2023-07-02T08:01:27;98047.91;;;25.68;68.77
34482;BME280;20720;48.886;9.388;2023-07-02T08:03:53;98042.44;;;25.46;69.45
34482;BME280;20720;48.886;9.388;2023-07-02T08:06:18;98043.56;;;25.45;69.34
34482;BME280;20720;48.886;9.388;2023-07-02T08:08:43;98043.56;;;24.90;69.49
34482;BME280;20720;48.886;9.388;2023-07-02T08:11:09;98050.66;;;24.54;71.74
34482;BME280;20720;48.886;9.388;2023-07-02T08:13:34;98056.28;;;24.07;68.46
34482;BME280;20720;48.886;9.388;2023-07-02T08:15:59;98048.06;;;22.95;72.25
34482;BME280;20720;48.886;9.388;2023-07-02T08:18:24;98054.81;;;22.64;75.10
34482;BME280;20720;48.886;9.388;2023-07-02T08:20:50;98054.38;;;23.52;73.43
34482;BME280;20720;48.886;9.388;2023-07-02T08:23:15;98058.88;;;23.75;71.12
34482;BME280;20720;48.886;9.388;2023-07-02T08:25:40;98053.50;;;24.90;66.00
34482;BME280;20720;48.886;9.388;2023-07-02T08:28:05;98056.50;;;25.29;68.34
34482;BME280;20720;48.886;9.388;2023-07-02T08:30:31;98054.16;;;25.77;65.21
34482;BME280;20720;48.886;9.388;2023-07-02T08:32:56;98067.38;;;24.65;67.24
34482;BME280;20720;48.886;9.388;2023-07-02T08:35:21;98061.00;;;24.61;68.90
34482;BME280;20720;48.886;9.388;2023-07-02T08:37:47;98065.59;;;23.91;72.39
34482;BME280;20720;48.886;9.388;2023-07-02T08:40:19;98061.28;;;23.76;72.38
34482;BME280;20720;48.886;9.388;2023-07-02T08:42:45;98061.06;;;24.42;71.38
34482;BME280;20720;48.886;9.388;2023-07-02T08:45:16;98065.47;;;24.97;70.42
34482;BME280;20720;48.886;9.388;2023-07-02T08:47:42;98057.88;;;24.86;66.78
34482;BME280;20720;48.886;9.388;2023-07-02T08:50:08;98061.94;;;25.65;64.93
34482;BME280;20720;48.886;9.388;2023-07-02T08:52:33;98053.13;;;25.51;65.49
34482;BME280;20720;48.886;9.388;2023-07-02T08:54:59;98059.06;;;26.85;61.69
34482;BME280;20720;48.886;9.388;2023-07-02T08:57:24;98058.56;;;25.95;61.77
34482;BME280;20720;48.886;9.388;2023-07-02T08:59:49;98064.69;;;25.10;63.76
34482;BME280;20720;48.886;9.388;2023-07-02T09:02:16;98060.19;;;26.40;58.63
34482;BME280;20720;48.886;9.388;2023-07-02T09:04:42;98049.13;;;27.76;57.51
34482;BME280;20720;48.886;9.388;2023-07-02T09:07:09;98059.97;;;28.53;55.31
34482;BME280;20720;48.886;9.388;2023-07-02T09:09:48;98044.06;;;27.66;57.10
34482;BME280;20720;48.886;9.388;2023-07-02T09:12:27;98059.19;;;27.93;54.79
34482;BME280;20720;48.886;9.388;2023-07-02T09:14:59;98049.59;;;27.53;55.53
34482;BME280;20720;48.886;9.388;2023-07-02T09:17:30;98058.09;;;26.59;56.72
34482;BME280;20720;48.886;9.388;2023-07-02T09:19:57;98052.69;;;26.59;55.75
34482;BME280;20720;48.886;9.388;2023-07-02T09:22:22;98057.47;;;26.62;57.72
34482;BME280;20720;48.886;9.388;2023-07-02T09:24:52;98052.75;;;26.01;55.72
34482;BME280;20720;48.886;9.388;2023-07-02T09:27:41;98062.72;;;26.01;55.55
34482;BME280;20720;48.886;9.388;2023-07-02T09:30:09;98055.66;;;27.67;52.93
34482;BME280;20720;48.886;9.388;2023-07-02T09:32:35;98051.59;;;28.84;50.88
34482;BME280;20720;48.886;9.388;2023-07-02T09:35:01;98056.50;;;27.28;52.70
34482;BME280;20720;48.886;9.388;2023-07-02T09:37:26;98063.00;;;28.09;50.64
34482;BME280;20720;48.886;9.388;2023-07-02T09:39:53;98053.19;;;25.95;55.19
34482;BME280;20720;48.886;9.388;2023-07-02T09:42:20;98048.19;;;28.24;51.62
34482;BME280;20720;48.886;9.388;2023-07-02T09:44:46;98049.63;;;28.30;51.57
34482;BME280;20720;48.886;9.388;2023-07-02T09:47:12;98051.94;;;27.37;51.86
34482;BME280;20720;48.886;9.388;2023-07-02T09:49:45;98050.13;;;28.06;52.62
34482;BME280;20720;48.886;9.388;2023-07-02T09:52:14;98054.25;;;27.22;52.69
34482;BME280;20720;48.886;9.388;2023-07-02T09:54:41;98047.47;;;29.74;47.50
34482;BME280;20720;48.886;9.388;2023-07-02T09:57:06;98042.91;;;30.28;47.27
34482;BME280;20720;48.886;9.388;2023-07-02T09:59:32;98045.66;;;29.57;49.23
34482;BME280;20720;48.886;9.388;2023-07-02T10:01:57;98042.28;;;30.22;46.93
34482;BME280;20720;48.886;9.388;2023-07-02T10:04:23;98035.41;;;30.57;46.85
34482;BME280;20720;48.886;9.388;2023-07-02T10:06:55;98048.78;;;30.09;46.41
34482;BME280;20720;48.886;9.388;2023-07-02T10:11:59;98037.78;;;29.64;46.19
34482;BME280;20720;48.886;9.388;2023-07-02T10:14:25;98030.97;;;31.34;45.17
34482;BME280;20720;48.886;9.388;2023-07-02T10:16:54;98037.03;;;32.47;42.68
34482;BME280;20720;48.886;9.388;2023-07-02T10:19:19;98038.63;;;32.79;42.18
34482;BME280;20720;48.886;9.388;2023-07-02T10:21:45;98027.91;;;32.55;41.69
34482;BME280;20720;48.886;9.388;2023-07-02T10:24:16;98034.84;;;32.24;41.65
34482;BME280;20720;48.886;9.388;2023-07-02T10:26:53;98031.59;;;30.71;42.20
34482;BME280;20720;48.886;9.388;2023-07-02T10:29:19;98024.63;;;31.30;43.35
34482;BME280;20720;48.886;9.388;2023-07-02T10:31:49;98025.66;;;32.01;42.78
34482;BME280;20720;48.886;9.388;2023-07-02T10:34:14;98025.00;;;32.63;41.13
34482;BME280;20720;48.886;9.388;2023-07-02T10:36:40;98020.56;;;33.02;41.28
34482;BME280;20720;48.886;9.388;2023-07-02T10:39:05;98023.16;;;32.52;41.07
34482;BME280;20720;48.886;9.388;2023-07-02T10:41:30;98007.22;;;32.97;40.73
34482;BME280;20720;48.886;9.388;2023-07-02T10:44:11;98024.56;;;32.46;41.11
34482;BME280;20720;48.886;9.388;2023-07-02T10:46:48;98019.47;;;33.22;39.70
34482;BME280;20720;48.886;9.388;2023-07-02T10:49:16;98016.00;;;31.64;41.53
34482;BME280;20720;48.886;9.388;2023-07-02T10:51:42;98018.97;;;32.42;41.78
34482;BME280;20720;48.886;9.388;2023-07-02T10:54:07;98010.59;;;31.40;41.71
34482;BME280;20720;48.886;9.388;2023-07-02T10:56:33;98019.69;;;32.98;39.73
34482;BME280;20720;48.886;9.388;2023-07-02T10:58:59;98015.47;;;34.24;39.91
34482;BME280;20720;48.886;9.388;2023-07-02T11:01:30;98019.38;;;31.73;42.95
34482;BME280;20720;48.886;9.388;2023-07-02T11:04:00;98011.84;;;30.82;43.36
34482;BME280;20720;48.886;9.388;2023-07-02T11:06:27;98017.31;;;32.10;41.92
34482;BME280;20720;48.886;9.388;2023-07-02T11:08:53;98021.47;;;31.16;43.33
34482;BME280;20720;48.886;9.388;2023-07-02T11:11:20;98024.75;;;31.21;42.45
34482;BME280;20720;48.886;9.388;2023-07-02T11:13:47;98026.41;;;32.73;40.68
34482;BME280;20720;48.886;9.388;2023-07-02T11:16:24;98032.72;;;32.61;39.57
34482;BME280;20720;48.886;9.388;2023-07-02T11:19:09;98007.28;;;29.55;43.89
34482;BME280;20720;48.886;9.388;2023-07-02T11:21:35;98023.47;;;28.76;46.68
34482;BME280;20720;48.886;9.388;2023-07-02T11:24:06;98007.63;;;30.73;43.89
34482;BME280;20720;48.886;9.388;2023-07-02T11:26:38;98009.88;;;31.67;42.41
34482;BME280;20720;48.886;9.388;2023-07-02T11:29:03;98015.88;;;33.18;40.88
34482;BME280;20720;48.886;9.388;2023-07-02T11:31:29;98005.72;;;32.25;39.92
34482;BME280;20720;48.886;9.388;2023-07-02T11:33:54;98007.56;;;33.11;39.86
34482;BME280;20720;48.886;9.388;2023-07-02T11:36:21;98014.06;;;33.41;39.92
34482;BME280;20720;48.886;9.388;2023-07-02T11:38:49;98005.00;;;34.06;39.18
34482;BME280;20720;48.886;9.388;2023-07-02T11:41:14;98004.72;;;32.92;40.04
34482;BME280;20720;48.886;9.388;2023-07-02T11:43:40;97994.78;;;32.09;41.76
34482;BME280;20720;48.886;9.388;2023-07-02T11:46:05;98005.97;;;31.04;42.38
34482;BME280;20720;48.886;9.388;2023-07-02T11:48:30;97998.88;;;31.76;42.25
34482;BME280;20720;48.886;9.388;2023-07-02T11:50:56;97995.56;;;31.70;42.38
34482;BME280;20720;48.886;9.388;2023-07-02T11:53:21;98003.16;;;31.13;43.58
34482;BME280;20720;48.886;9.388;2023-07-02T11:55:46;98001.22;;;32.17;41.60
34482;BME280;20720;48.886;9.388;2023-07-02T11:58:11;98000.09;;;32.33;41.69
34482;BME280;20720;48.886;9.388;2023-07-02T12:00:37;98001.06;;;31.98;40.87
34482;BME280;20720;48.886;9.388;2023-07-02T12:03:02;97992.31;;;33.25;38.63
34482;BME280;20720;48.886;9.388;2023-07-02T12:05:27;97998.78;;;33.02;39.23
34482;BME280;20720;48.886;9.388;2023-07-02T12:07:52;98004.47;;;32.66;39.34
34482;BME280;20720;48.886;9.388;2023-07-02T12:10:18;97988.75;;;32.75;39.93
34482;BME280;20720;48.886;9.388;2023-07-02T12:12:43;97995.34;;;30.99;40.94
34482;BME280;20720;48.886;9.388;2023-07-02T12:15:09;97986.19;;;32.07;40.29
34482;BME280;20720;48.886;9.388;2023-07-02T12:17:34;97979.16;;;34.61;37.99
34482;BME280;20720;48.886;9.388;2023-07-02T12:19:59;97991.00;;;31.86;40.00
34482;BME280;20720;48.886;9.388;2023-07-02T12:22:25;97992.34;;;30.23;40.95
34482;BME280;20720;48.886;9.388;2023-07-02T12:24:50;97996.06;;;29.16;43.18
34482;BME280;20720;48.886;9.388;2023-07-02T12:27:15;97992.09;;;30.49;41.95
34482;BME280;20720;48.886;9.388;2023-07-02T12:29:41;97986.94;;;31.80;39.61
34482;BME280;20720;48.886;9.388;2023-07-02T12:32:07;97995.75;;;31.89;40.39
34482;BME280;20720;48.886;9.388;2023-07-02T12:34:32;97989.03;;;33.51;39.78
34482;BME280;20720;48.886;9.388;2023-07-02T12:36:57;97975.59;;;34.38;37.60
34482;BME280;20720;48.886;9.388;2023-07-02T12:39:23;97985.34;;;32.19;40.95
34482;BME280;20720;48.886;9.388;2023-07-02T12:41:48;97985.91;;;33.18;39.03
34482;BME280;20720;48.886;9.388;2023-07-02T12:44:13;97986.13;;;34.40;37.29
34482;BME280;20720;48.886;9.388;2023-07-02T12:46:38;97979.25;;;32.10;38.85
34482;BME280;20720;48.886;9.388;2023-07-02T12:49:04;97973.56;;;33.93;37.20
34482;BME280;20720;48.886;9.388;2023-07-02T12:51:29;97983.25;;;35.49;34.60